createdAt,value
2022-11-13T00:03:33.272Z,12.30
2022-11-13T00:06:02.045Z,9.65
2022-11-13T00:08:29.072Z,10.10
2022-11-13T00:11:18.560Z,10.25
2022-11-13T00:13:46.207Z,10.53
2022-11-13T00:16:16.105Z,9.48
2022-11-13T00:18:43.667Z,9.27
2022-11-13T00:21:18.831Z,8.80
2022-11-13T00:23:46.032Z,8.10
2022-11-13T00:26:21.798Z,7.25
2022-11-13T00:28:56.103Z,8.60
2022-11-13T00:31:23.031Z,8.23
2022-11-13T00:36:37.012Z,8.52
2022-11-13T00:39:04.221Z,9.50
2022-11-13T00:41:31.012Z,9.38
2022-11-13T00:43:57.735Z,9.20
2022-11-13T00:46:24.456Z,8.82
2022-11-13T00:48:51.194Z,8.63
2022-11-13T00:51:19.819Z,9.68
2022-11-13T00:53:46.722Z,8.57
2022-11-13T00:56:13.742Z,8.82
2022-11-13T00:58:40.488Z,9.40
2022-11-13T01:01:11.509Z,9.45
2022-11-13T01:03:38.693Z,10.20
2022-11-13T01:06:19.280Z,10.73
2022-11-13T01:08:46.651Z,11.60
2022-11-13T01:11:17.918Z,9.82
2022-11-13T01:13:47.229Z,12.07
2022-11-13T01:16:15.207Z,17.65
2022-11-13T01:18:42.960Z,19.58
2022-11-13T01:21:18.347Z,15.48
2022-11-13T01:23:45.827Z,14.13
2022-11-13T01:26:21.050Z,17.45
2022-11-13T01:28:47.961Z,13.25
2022-11-13T01:31:17.676Z,9.88
2022-11-13T01:33:45.383Z,9.75
2022-11-13T01:36:14.355Z,14.57
2022-11-13T01:38:41.215Z,11.43
2022-11-13T01:41:12.912Z,11.60
2022-11-13T01:43:39.675Z,11.38
2022-11-13T01:46:26.703Z,11.88
2022-11-13T01:49:08.315Z,17.40
2022-11-13T01:51:50.167Z,12.40
2022-11-13T01:54:23.001Z,12.35
2022-11-13T01:56:50.633Z,14.52
2022-11-13T01:59:28.124Z,13.48
2022-11-13T02:01:56.716Z,12.95
2022-11-13T02:04:23.740Z,10.35
2022-11-13T02:06:59.762Z,13.27
2022-11-13T02:09:30.328Z,12.27
2022-11-13T02:11:58.313Z,13.07
2022-11-13T02:14:27.885Z,12.07
2022-11-13T02:16:59.265Z,12.77
2022-11-13T02:19:31.235Z,12.65
2022-11-13T02:22:14.664Z,13.18
2022-11-13T02:24:45.745Z,13.98
2022-11-13T02:27:39.934Z,11.40
2022-11-13T02:30:16.405Z,12.52
2022-11-13T02:32:51.494Z,11.85
2022-11-13T02:35:33.812Z,11.93
2022-11-13T02:38:03.028Z,11.63
2022-11-13T02:40:30.444Z,12.47
2022-11-13T02:42:57.248Z,18.95
2022-11-13T02:45:24.026Z,13.07
2022-11-13T02:47:51.021Z,13.30
2022-11-13T02:50:18.545Z,11.57
2022-11-13T02:52:45.261Z,11.25
2022-11-13T02:55:11.958Z,12.45
2022-11-13T02:57:38.656Z,12.60
2022-11-13T03:00:12.257Z,11.68
2022-11-13T03:02:40.582Z,11.18
2022-11-13T03:05:12.543Z,9.68
2022-11-13T03:07:40.138Z,11.30
2022-11-13T03:10:07.581Z,12.52
2022-11-13T03:12:34.395Z,12.82
2022-11-13T03:15:01.385Z,11.18
2022-11-13T03:17:28.073Z,13.85
2022-11-13T03:19:54.791Z,12.48
2022-11-13T03:22:21.694Z,16.92
2022-11-13T03:24:48.442Z,14.05
2022-11-13T03:27:15.165Z,14.65
2022-11-13T03:29:41.863Z,13.98
2022-11-13T03:32:08.595Z,16.25
2022-11-13T03:34:35.303Z,15.52
2022-11-13T03:37:02.036Z,13.18
2022-11-13T03:39:28.772Z,14.95
2022-11-13T03:41:55.512Z,14.98
2022-11-13T03:44:22.382Z,16.05
2022-11-13T03:46:49.050Z,14.10
2022-11-13T03:49:15.733Z,13.50
2022-11-13T03:51:42.476Z,14.85
2022-11-13T03:54:09.240Z,19.83
2022-11-13T03:56:35.996Z,15.55
2022-11-13T03:59:02.691Z,15.98
2022-11-13T04:01:29.493Z,14.75
2022-11-13T04:03:56.234Z,13.43
2022-11-13T04:06:22.991Z,16.13
2022-11-13T04:08:49.712Z,15.15
2022-11-13T04:11:16.466Z,13.60
2022-11-13T04:13:43.257Z,13.23
2022-11-13T04:16:09.993Z,15.40
2022-11-13T04:18:36.701Z,14.02
2022-11-13T04:21:05.400Z,13.95
2022-11-13T04:23:32.168Z,13.27
2022-11-13T04:25:59.447Z,16.95
2022-11-13T04:28:26.484Z,17.20
2022-11-13T04:30:54.976Z,15.93
2022-11-13T04:33:22.120Z,17.20
2022-11-13T04:35:49.320Z,15.50
2022-11-13T04:38:16.112Z,17.25
2022-11-13T04:40:43.163Z,19.60
2022-11-13T04:43:09.981Z,17.58
2022-11-13T04:45:37.611Z,18.77
2022-11-13T04:48:04.625Z,16.50
2022-11-13T04:50:31.661Z,18.08
2022-11-13T04:52:58.442Z,18.70
2022-11-13T04:55:25.260Z,17.77
2022-11-13T04:57:55.607Z,19.00
2022-11-13T05:00:22.786Z,18.58
2022-11-13T05:02:49.744Z,19.48
2022-11-13T05:05:16.780Z,17.75
2022-11-13T05:07:43.566Z,18.98
2022-11-13T05:10:10.302Z,22.02
2022-11-13T05:12:36.991Z,19.02
2022-11-13T05:15:04.473Z,27.05
2022-11-13T05:17:31.216Z,20.33
2022-11-13T05:19:57.994Z,21.60
2022-11-13T05:22:24.725Z,21.63
2022-11-13T05:24:51.449Z,24.45
2022-11-13T05:27:18.148Z,26.38
2022-11-13T05:29:45.251Z,23.23
2022-11-13T05:32:12.132Z,25.73
2022-11-13T05:34:38.905Z,21.77
2022-11-13T05:37:05.655Z,23.48
2022-11-13T05:39:32.322Z,20.88
2022-11-13T05:41:59.056Z,23.17
2022-11-13T05:44:25.841Z,25.75
2022-11-13T05:46:52.673Z,24.83
2022-11-13T05:49:19.517Z,30.30
2022-11-13T05:51:46.358Z,27.80
2022-11-13T05:54:13.205Z,32.10
2022-11-13T05:56:40.661Z,32.33
2022-11-13T05:59:08.055Z,40.28
2022-11-13T06:01:37.729Z,45.72
2022-11-13T06:04:05.592Z,48.50
2022-11-13T06:06:33.322Z,52.42
2022-11-13T06:09:03.693Z,61.70
2022-11-13T06:11:31.719Z,55.13
2022-11-13T06:13:59.743Z,86.90
2022-11-13T06:16:30.212Z,50.05
2022-11-13T06:18:59.198Z,48.78
2022-11-13T06:21:29.720Z,52.08
2022-11-13T06:24:00.479Z,53.92
2022-11-13T06:26:30.669Z,57.97
2022-11-13T06:31:29.946Z,50.45
2022-11-13T06:33:59.255Z,47.63
2022-11-13T06:36:31.812Z,51.70
2022-11-13T06:38:59.291Z,58.00
2022-11-13T06:41:29.644Z,51.85
2022-11-13T06:44:02.259Z,48.03
2022-11-13T06:46:30.903Z,54.00
2022-11-13T06:48:58.004Z,67.30
2022-11-13T06:51:27.466Z,62.55
2022-11-13T06:53:54.589Z,58.00
2022-11-13T06:56:21.883Z,68.40
2022-11-13T06:58:49.110Z,54.70
2022-11-13T07:01:18.999Z,67.03
2022-11-13T07:03:45.982Z,68.47
2022-11-13T07:06:18.325Z,66.65
2022-11-13T07:08:45.778Z,58.25
2022-11-13T07:11:15.874Z,76.55
2022-11-13T07:16:16.918Z,81.32
2022-11-13T07:18:53.898Z,73.32
2022-11-13T07:21:21.989Z,70.18
2022-11-13T07:23:50.190Z,69.15
2022-11-13T07:26:17.094Z,84.10
2022-11-13T07:28:44.042Z,78.72
2022-11-13T07:31:12.805Z,82.53
2022-11-13T07:33:39.576Z,89.68
2022-11-13T07:36:06.966Z,75.05
2022-11-13T07:38:33.745Z,73.15
2022-11-13T07:41:01.065Z,65.28
2022-11-13T07:43:28.266Z,57.05
2022-11-13T07:45:57.809Z,58.88
2022-11-13T07:48:24.893Z,55.88
2022-11-13T07:50:51.662Z,48.95
2022-11-13T07:53:19.676Z,47.75
2022-11-13T07:55:47.020Z,51.60
2022-11-13T07:58:14.091Z,49.05
2022-11-13T08:00:40.917Z,47.13
2022-11-13T08:03:09.670Z,45.33
2022-11-13T08:05:36.874Z,43.97
2022-11-13T08:08:04.039Z,47.33
2022-11-13T08:10:31.232Z,44.45
2022-11-13T08:13:08.058Z,41.88
2022-11-13T08:15:35.294Z,44.95
2022-11-13T08:18:04.142Z,37.60
2022-11-13T08:20:32.001Z,39.95
2022-11-13T08:23:00.688Z,46.88
2022-11-13T08:25:28.961Z,38.78
2022-11-13T08:27:56.040Z,41.15
2022-11-13T08:30:24.976Z,39.78
2022-11-13T08:32:52.320Z,36.47
2022-11-13T08:35:20.774Z,37.67
2022-11-13T08:37:49.935Z,38.72
2022-11-13T08:40:16.744Z,36.13
2022-11-13T08:42:43.483Z,38.08
2022-11-13T08:45:10.703Z,37.20
2022-11-13T08:47:37.780Z,35.25
2022-11-13T08:50:06.400Z,35.60
2022-11-13T08:52:33.178Z,39.10
2022-11-13T08:54:59.941Z,37.72
2022-11-13T08:57:26.759Z,45.90
2022-11-13T08:59:53.533Z,40.80
2022-11-13T09:02:20.308Z,39.08
2022-11-13T09:04:47.347Z,34.50
2022-11-13T09:07:14.318Z,36.47
2022-11-13T09:09:41.125Z,30.60
2022-11-13T09:12:08.140Z,34.45
2022-11-13T09:14:36.115Z,30.65
2022-11-13T09:17:03.214Z,32.28
2022-11-13T09:19:29.989Z,34.15
2022-11-13T09:21:56.890Z,28.38
2022-11-13T09:24:23.649Z,27.15
2022-11-13T09:26:50.676Z,25.48
2022-11-13T09:29:20.050Z,28.25
2022-11-13T09:31:46.987Z,26.08
2022-11-13T09:34:16.895Z,24.42
2022-11-13T09:36:43.632Z,24.77
2022-11-13T09:39:10.389Z,24.08
2022-11-13T09:41:48.221Z,27.35
2022-11-13T09:44:21.182Z,28.10
2022-11-13T09:46:54.307Z,28.77
2022-11-13T09:49:34.761Z,27.63
2022-11-13T09:52:13.646Z,26.48
2022-11-13T09:54:40.455Z,27.50
2022-11-13T09:57:26.459Z,25.35
2022-11-13T10:00:05.708Z,27.02
2022-11-13T10:02:46.432Z,24.13
2022-11-13T10:05:13.111Z,21.70
2022-11-13T10:08:06.234Z,24.83
2022-11-13T10:10:53.698Z,23.52
2022-11-13T10:13:27.467Z,25.65
2022-11-13T10:16:09.583Z,26.08
2022-11-13T10:18:38.517Z,28.65
2022-11-13T10:21:31.870Z,25.73
2022-11-13T10:24:04.383Z,27.08
2022-11-13T10:26:33.028Z,25.30
2022-11-13T10:29:06.325Z,27.55
2022-11-13T10:31:48.989Z,30.05
2022-11-13T10:34:16.993Z,26.80
2022-11-13T10:37:14.161Z,27.30
2022-11-13T10:39:47.277Z,26.75
2022-11-13T10:42:28.257Z,24.83
2022-11-13T10:45:00.492Z,26.50
2022-11-13T10:48:02.629Z,25.88
2022-11-13T10:50:19.253Z,22.60
2022-11-13T10:52:48.401Z,23.60
2022-11-13T10:55:30.032Z,27.93
2022-11-13T10:57:59.255Z,29.77
2022-11-13T11:00:32.368Z,25.63
2022-11-13T11:02:59.164Z,24.92
2022-11-13T11:05:27.254Z,26.90
2022-11-13T11:07:56.347Z,28.00
2022-11-13T11:10:34.132Z,32.10
2022-11-13T11:13:11.167Z,26.38
2022-11-13T11:15:59.568Z,25.50
2022-11-13T11:18:47.907Z,26.88
2022-11-13T11:21:21.219Z,32.70
2022-11-13T11:24:00.284Z,29.05
2022-11-13T11:26:56.825Z,29.53
2022-11-13T11:29:37.727Z,33.20
2022-11-13T11:32:23.571Z,29.70
2022-11-13T11:35:00.408Z,27.67
2022-11-13T11:37:47.290Z,27.48
2022-11-13T11:40:27.133Z,27.77
2022-11-13T11:43:36.369Z,29.80
2022-11-13T11:46:03.418Z,32.63
2022-11-13T11:48:32.101Z,29.40
2022-11-13T11:51:24.333Z,26.80
2022-11-13T11:54:20.070Z,27.25
2022-11-13T11:56:57.621Z,26.38
2022-11-13T12:00:10.196Z,25.05
2022-11-13T12:03:11.908Z,26.67
2022-11-13T12:06:28.061Z,27.45
2022-11-13T12:08:54.963Z,26.33
2022-11-13T12:11:36.857Z,30.00
2022-11-13T12:14:38.804Z,25.27
2022-11-13T12:17:17.558Z,25.70
2022-11-13T12:20:00.943Z,24.00
2022-11-13T12:22:43.798Z,26.65
2022-11-13T12:25:16.518Z,25.67
2022-11-13T12:27:48.688Z,24.98
2022-11-13T12:30:19.977Z,25.25
2022-11-13T12:32:52.300Z,26.38
2022-11-13T12:35:25.344Z,25.55
2022-11-13T12:38:02.674Z,24.88
2022-11-13T12:40:34.385Z,25.27
2022-11-13T12:43:35.593Z,25.80
2022-11-13T12:46:08.553Z,24.73
2022-11-13T12:48:36.689Z,28.45
2022-11-13T12:51:09.577Z,27.67
2022-11-13T12:53:51.056Z,24.33
2022-11-13T12:56:20.604Z,24.05
2022-11-13T12:59:23.582Z,25.00
2022-11-13T13:01:48.283Z,26.77
2022-11-13T13:04:45.840Z,24.30
2022-11-13T13:07:13.366Z,24.08
2022-11-13T13:10:02.006Z,25.23
2022-11-13T13:12:31.422Z,26.15
2022-11-13T13:15:13.233Z,22.17
2022-11-13T13:17:41.435Z,22.58
2022-11-13T13:20:11.127Z,21.45
2022-11-13T13:22:37.960Z,23.58
2022-11-13T13:25:28.574Z,20.35
2022-11-13T13:28:21.501Z,24.55
2022-11-13T13:31:07.799Z,22.05
2022-11-13T13:33:37.685Z,25.30
2022-11-13T13:39:00.493Z,21.75
2022-11-13T13:41:42.269Z,22.73
2022-11-13T13:44:18.057Z,25.45
2022-11-13T13:46:45.061Z,27.77
2022-11-13T13:49:16.277Z,25.88
2022-11-13T13:51:46.899Z,24.45
2022-11-13T13:54:20.013Z,26.65
2022-11-13T13:56:47.298Z,25.00
2022-11-13T13:59:22.225Z,23.60
2022-11-13T14:01:58.554Z,29.08
2022-11-13T14:04:28.669Z,21.70
2022-11-13T14:09:28.699Z,24.88
2022-11-13T14:12:08.948Z,27.13
2022-11-13T14:14:40.062Z,24.55
2022-11-13T14:17:08.985Z,24.58
2022-11-13T14:19:35.797Z,25.45
2022-11-13T14:22:05.077Z,22.00
2022-11-13T14:24:54.214Z,24.65
2022-11-13T14:27:25.683Z,22.93
2022-11-13T14:29:55.444Z,24.98
2022-11-13T14:32:26.809Z,22.45
2022-11-13T14:34:59.175Z,24.40
2022-11-13T14:37:36.582Z,24.20
2022-11-13T14:40:26.615Z,22.08
2022-11-13T14:42:58.116Z,25.10
2022-11-13T14:45:32.881Z,21.95
2022-11-13T14:48:02.460Z,22.52
2022-11-13T14:50:35.205Z,20.98
2022-11-13T14:53:05.537Z,21.60
2022-11-13T14:55:54.186Z,20.55
2022-11-13T14:58:37.482Z,22.30
2022-11-13T15:01:21.012Z,23.27
2022-11-13T15:03:49.961Z,22.35
2022-11-13T15:06:23.750Z,24.00
2022-11-13T15:08:58.502Z,20.83
2022-11-13T15:11:27.141Z,21.92
2022-11-13T15:13:54.547Z,19.17
2022-11-13T15:16:29.184Z,18.33
2022-11-13T15:19:03.851Z,20.23
2022-11-13T15:21:32.502Z,19.92
2022-11-13T15:24:02.773Z,19.27
2022-11-13T15:26:30.087Z,23.25
2022-11-13T15:28:57.137Z,22.27
2022-11-13T15:31:33.205Z,19.30
2022-11-13T15:34:00.046Z,19.75
2022-11-13T15:36:27.170Z,21.30
2022-11-13T15:38:54.411Z,17.95
2022-11-13T15:41:26.005Z,19.25
2022-11-13T15:43:55.733Z,17.02
2022-11-13T15:46:25.405Z,21.60
2022-11-13T15:48:53.267Z,20.23
2022-11-13T15:51:43.520Z,21.67
2022-11-13T15:54:21.134Z,20.27
2022-11-13T15:56:48.057Z,22.90
2022-11-13T15:59:15.252Z,18.20
2022-11-13T16:01:42.161Z,22.08
2022-11-13T16:04:10.997Z,21.67
2022-11-13T16:06:38.496Z,22.10
2022-11-13T16:09:06.636Z,20.90
2022-11-13T16:11:35.440Z,21.92
2022-11-13T16:14:02.788Z,20.92
2022-11-13T16:16:39.269Z,20.58
2022-11-13T16:19:15.602Z,22.00
2022-11-13T16:21:42.585Z,19.60
2022-11-13T16:24:12.333Z,22.73
2022-11-13T16:26:43.066Z,18.45
2022-11-13T16:29:20.445Z,18.50
2022-11-13T16:31:48.378Z,20.42
2022-11-13T16:34:15.132Z,21.88
2022-11-13T16:36:42.875Z,20.40
2022-11-13T16:39:15.570Z,20.17
2022-11-13T16:41:42.915Z,22.13
2022-11-13T16:44:10.406Z,22.48
2022-11-13T16:46:42.179Z,21.83
2022-11-13T16:49:17.199Z,22.90
2022-11-13T16:51:46.661Z,22.20
2022-11-13T16:54:14.458Z,26.25
2022-11-13T16:56:45.720Z,27.65
2022-11-13T16:59:12.954Z,20.55
2022-11-13T17:01:40.641Z,23.50
2022-11-13T17:04:08.158Z,22.85
2022-11-13T17:06:36.679Z,23.23
2022-11-13T17:09:05.090Z,20.25
2022-11-13T17:11:35.429Z,22.70
2022-11-13T17:14:03.577Z,23.73
2022-11-13T17:16:32.182Z,21.80
2022-11-13T17:19:00.472Z,23.67
2022-11-13T17:21:29.593Z,24.38
2022-11-13T17:23:59.115Z,30.80
2022-11-13T17:26:27.317Z,27.17
2022-11-13T17:28:55.137Z,26.35
2022-11-13T17:31:22.226Z,23.80
2022-11-13T17:33:54.846Z,26.20
2022-11-13T17:36:25.680Z,29.35
2022-11-13T17:38:53.094Z,27.20
2022-11-13T17:41:20.364Z,31.10
2022-11-13T17:43:48.047Z,29.38
2022-11-13T17:46:17.854Z,30.80
2022-11-13T17:48:46.124Z,34.00
2022-11-13T17:51:15.883Z,33.38
2022-11-13T17:53:44.783Z,35.08
2022-11-13T17:56:14.341Z,34.65
2022-11-13T17:58:44.941Z,34.83
2022-11-13T18:01:15.241Z,34.15
2022-11-13T18:03:43.315Z,36.63
2022-11-13T18:06:15.571Z,32.63
2022-11-13T18:08:46.405Z,34.58
2022-11-13T18:11:17.875Z,34.65
2022-11-13T18:13:46.790Z,35.13
2022-11-13T18:16:19.541Z,33.58
2022-11-13T18:18:54.079Z,36.97
2022-11-13T18:21:30.796Z,37.67
2022-11-13T18:24:07.895Z,39.05
2022-11-13T18:26:35.560Z,37.35
2022-11-13T18:29:03.876Z,34.65
2022-11-13T18:31:31.467Z,34.13
2022-11-13T18:34:00.582Z,33.40
2022-11-13T18:36:28.391Z,27.33
2022-11-13T18:38:56.708Z,27.05
2022-11-13T18:41:24.762Z,25.33
2022-11-13T18:43:53.145Z,27.52
2022-11-13T18:46:24.113Z,29.17
2022-11-13T18:48:51.662Z,32.97
2022-11-13T18:51:21.893Z,33.50
2022-11-13T18:53:51.785Z,32.28
2022-11-13T18:56:22.497Z,37.67
2022-11-13T18:58:53.589Z,36.95
2022-11-13T19:01:31.038Z,35.90
2022-11-13T19:04:23.557Z,35.88
2022-11-13T19:06:56.651Z,36.75
2022-11-13T19:09:24.220Z,31.00
2022-11-13T19:11:52.067Z,35.05
2022-11-13T19:14:20.059Z,30.23
2022-11-13T19:16:48.166Z,34.80
2022-11-13T19:19:19.448Z,34.65
2022-11-13T19:21:47.974Z,35.67
2022-11-13T19:24:16.065Z,30.85
2022-11-13T19:26:44.607Z,31.42
2022-11-13T19:29:12.125Z,29.50
2022-11-13T19:31:40.390Z,33.88
2022-11-13T19:34:09.047Z,31.08
2022-11-13T19:36:37.011Z,34.33
2022-11-13T19:39:05.181Z,33.08
2022-11-13T19:41:33.434Z,31.02
2022-11-13T19:44:01.148Z,31.55
2022-11-13T19:46:32.501Z,30.23
2022-11-13T19:49:00.223Z,31.35
2022-11-13T19:51:27.902Z,29.38
2022-11-13T19:53:57.876Z,41.83
2022-11-13T19:56:27.963Z,31.42
2022-11-13T20:01:28.446Z,29.52
2022-11-13T20:03:57.867Z,31.67
2022-11-13T20:06:27.032Z,34.03
2022-11-13T20:08:57.289Z,29.13
2022-11-13T20:11:24.840Z,108.13
2022-11-13T20:13:52.637Z,35.75
2022-11-13T20:16:22.625Z,30.55
2022-11-13T20:18:51.162Z,29.65
2022-11-13T20:21:26.709Z,31.13
2022-11-13T20:23:57.390Z,26.17
2022-11-13T20:26:25.955Z,28.02
2022-11-13T20:28:53.484Z,26.42
2022-11-13T20:31:24.121Z,26.67
2022-11-13T20:33:54.263Z,24.02
2022-11-13T20:38:52.575Z,27.42
2022-11-13T20:41:24.483Z,28.48
2022-11-13T20:43:53.017Z,27.15
2022-11-13T20:46:21.605Z,26.10
2022-11-13T20:48:50.081Z,29.80
2022-11-13T20:51:20.978Z,27.17
2022-11-13T20:53:49.328Z,34.15
2022-11-13T20:56:18.014Z,51.92
2022-11-13T20:58:45.822Z,37.45
2022-11-13T21:01:18.912Z,32.03
2022-11-13T21:03:46.733Z,28.67
2022-11-13T21:06:22.544Z,24.45
2022-11-13T21:08:50.419Z,25.83
2022-11-13T21:11:22.153Z,44.75
2022-11-13T21:13:51.767Z,24.65
2022-11-13T21:16:19.416Z,24.67
2022-11-13T21:18:46.711Z,27.30
2022-11-13T21:21:16.805Z,35.75
2022-11-13T21:26:11.183Z,32.40
2022-11-13T21:28:38.049Z,28.60
2022-11-13T21:31:15.072Z,27.08
2022-11-13T21:33:43.341Z,27.60
2022-11-13T21:36:16.700Z,26.80
2022-11-13T21:38:43.560Z,29.35
2022-11-13T21:41:21.891Z,24.35
2022-11-13T21:44:08.557Z,30.13
2022-11-13T21:46:37.574Z,24.90
2022-11-13T21:49:07.001Z,23.95
2022-11-13T21:51:36.821Z,22.88
2022-11-13T21:54:03.878Z,20.58
2022-11-13T21:56:33.123Z,22.42
2022-11-13T21:58:59.861Z,22.90
2022-11-13T22:01:27.340Z,22.98
2022-11-13T22:03:54.917Z,24.60
2022-11-13T22:06:32.663Z,22.20
2022-11-13T22:09:02.147Z,21.58
2022-11-13T22:11:31.774Z,24.45
2022-11-13T22:13:59.382Z,22.38
2022-11-13T22:16:28.364Z,26.52
2022-11-13T22:18:56.853Z,25.40
2022-11-13T22:21:25.584Z,24.40
2022-11-13T22:23:52.742Z,24.58
2022-11-13T22:26:20.913Z,22.42
2022-11-13T22:28:48.592Z,23.25
2022-11-13T22:31:17.975Z,23.20
2022-11-13T22:33:48.306Z,26.48
2022-11-13T22:36:20.506Z,26.58
2022-11-13T22:38:48.044Z,30.13
2022-11-13T22:41:22.597Z,30.08
2022-11-13T22:43:52.642Z,31.65
2022-11-13T22:46:22.731Z,30.47
2022-11-13T22:51:19.384Z,37.78
2022-11-13T22:53:53.432Z,32.75
2022-11-13T22:56:21.510Z,35.42
2022-11-13T22:58:48.425Z,29.63
2022-11-13T23:01:16.922Z,25.75
2022-11-13T23:03:46.585Z,20.10
2022-11-13T23:06:16.213Z,21.73
2022-11-13T23:08:43.313Z,24.58
2022-11-13T23:11:12.617Z,31.83
2022-11-13T23:13:41.766Z,32.10
2022-11-13T23:16:08.926Z,29.97
2022-11-13T23:18:35.635Z,26.05
2022-11-13T23:21:02.531Z,32.47
2022-11-13T23:23:29.281Z,29.73
2022-11-13T23:25:56.270Z,56.15
2022-11-13T23:28:23.030Z,31.17
2022-11-13T23:30:49.765Z,27.10
2022-11-13T23:33:16.527Z,31.85
2022-11-13T23:35:43.293Z,27.92
2022-11-13T23:38:10.102Z,30.55
2022-11-13T23:40:37.122Z,85.93
2022-11-13T23:43:04.331Z,40.17
2022-11-13T23:45:31.119Z,30.55
2022-11-13T23:47:58.062Z,28.67
2022-11-13T23:50:24.823Z,27.20
2022-11-13T23:52:51.712Z,31.40
2022-11-13T23:55:18.896Z,29.35
2022-11-13T23:57:45.651Z,31.00
